sensor_id;sensor_type;location;lat;lon;timestamp;temperature;humidity
22779;DHT22;11556;51.194;3.800;2023-03-23T00:00:43;13.70;99.90
22779;DHT22;11556;51.194;3.800;2023-03-23T00:03:09;13.60;99.90
22779;DHT22;11556;51.194;3.800;2023-03-23T00:05:34;13.70;99.90
22779;DHT22;11556;51.194;3.800;2023-03-23T00:08:02;13.70;99.90
22779;DHT22;11556;51.194;3.800;2023-03-23T00:10:29;13.70;99.90
22779;DHT22;11556;51.194;3.800;2023-03-23T00:12:58;13.60;99.90
22779;DHT22;11556;51.194;3.800;2023-03-23T00:15:28;13.50;99.90
22779;DHT22;11556;51.194;3.800;2023-03-23T00:18:01;13.60;99.90
22779;DHT22;11556;51.194;3.800;2023-03-23T00:20:30;13.60;99.90
22779;DHT22;11556;51.194;3.800;2023-03-23T00:23:02;13.60;99.90
22779;DHT22;11556;51.194;3.800;2023-03-23T00:25:29;13.60;99.90
22779;DHT22;11556;51.194;3.800;2023-03-23T00:27:55;13.70;99.90
22779;DHT22;11556;51.194;3.800;2023-03-23T00:30:21;13.70;99.90
22779;DHT22;11556;51.194;3.800;2023-03-23T00:32:47;13.70;99.90
22779;DHT22;11556;51.194;3.800;2023-03-23T00:35:14;13.70;99.90
22779;DHT22;11556;51.194;3.800;2023-03-23T00:37:39;13.60;99.90
22779;DHT22;11556;51.194;3.800;2023-03-23T00:40:05;13.60;99.90
22779;DHT22;11556;51.194;3.800;2023-03-23T00:42:34;13.50;99.90
22779;DHT22;11556;51.194;3.800;2023-03-23T00:45:03;13.50;99.90
22779;DHT22;11556;51.194;3.800;2023-03-23T00:47:32;13.50;99.90
22779;DHT22;11556;51.194;3.800;2023-03-23T00:50:02;13.40;99.90
22779;DHT22;11556;51.194;3.800;2023-03-23T00:52:28;13.40;99.90
22779;DHT22;11556;51.194;3.800;2023-03-23T00:54:53;13.40;99.90
22779;DHT22;11556;51.194;3.800;2023-03-23T00:57:19;13.40;99.90
22779;DHT22;11556;51.194;3.800;2023-03-23T00:59:45;13.40;99.90
22779;DHT22;11556;51.194;3.800;2023-03-23T01:02:10;13.40;99.90
22779;DHT22;11556;51.194;3.800;2023-03-23T01:04:38;13.40;99.90
22779;DHT22;11556;51.194;3.800;2023-03-23T01:07:04;13.40;99.90
22779;DHT22;11556;51.194;3.800;2023-03-23T01:09:30;13.40;99.90
22779;DHT22;11556;51.194;3.800;2023-03-23T01:11:55;13.50;99.90
22779;DHT22;11556;51.194;3.800;2023-03-23T01:14:21;13.40;99.90
22779;DHT22;11556;51.194;3.800;2023-03-23T01:16:47;13.40;99.90
22779;DHT22;11556;51.194;3.800;2023-03-23T01:19:12;13.40;99.90
22779;DHT22;11556;51.194;3.800;2023-03-23T01:21:39;13.30;99.90
22779;DHT22;11556;51.194;3.800;2023-03-23T01:24:05;13.40;99.90
22779;DHT22;11556;51.194;3.800;2023-03-23T01:26:31;13.40;99.90
22779;DHT22;11556;51.194;3.800;2023-03-23T01:28:57;13.40;99.90
22779;DHT22;11556;51.194;3.800;2023-03-23T01:31:24;13.40;99.90
22779;DHT22;11556;51.194;3.800;2023-03-23T01:33:52;13.40;99.90
22779;DHT22;11556;51.194;3.800;2023-03-23T01:36:21;13.50;99.90
22779;DHT22;11556;51.194;3.800;2023-03-23T01:38:47;13.40;99.90
22779;DHT22;11556;51.194;3.800;2023-03-23T01:41:14;13.40;99.90
22779;DHT22;11556;51.194;3.800;2023-03-23T01:44:02;13.40;99.90
22779;DHT22;11556;51.194;3.800;2023-03-23T01:46:30;13.40;99.90
22779;DHT22;11556;51.194;3.800;2023-03-23T01:48:59;13.40;99.90
22779;DHT22;11556;51.194;3.800;2023-03-23T01:51:26;13.50;99.90
22779;DHT22;11556;51.194;3.800;2023-03-23T01:53:55;13.40;99.90
22779;DHT22;11556;51.194;3.800;2023-03-23T01:56:24;13.40;99.90
22779;DHT22;11556;51.194;3.800;2023-03-23T01:58:55;13.40;99.90
22779;DHT22;11556;51.194;3.800;2023-03-23T02:01:22;13.50;99.90
22779;DHT22;11556;51.194;3.800;2023-03-23T02:03:50;13.50;99.90
22779;DHT22;11556;51.194;3.800;2023-03-23T02:06:17;13.50;99.90
22779;DHT22;11556;51.194;3.800;2023-03-23T02:08:43;13.60;99.90
22779;DHT22;11556;51.194;3.800;2023-03-23T02:11:18;13.60;99.90
22779;DHT22;11556;51.194;3.800;2023-03-23T02:13:44;13.50;99.90
22779;DHT22;11556;51.194;3.800;2023-03-23T02:19:29;13.40;99.90
22779;DHT22;11556;51.194;3.800;2023-03-23T02:33:46;13.50;99.90
22779;DHT22;11556;51.194;3.800;2023-03-23T02:41:20;13.40;99.90
22779;DHT22;11556;51.194;3.800;2023-03-23T02:43:47;13.40;99.90
22779;DHT22;11556;51.194;3.800;2023-03-23T02:46:14;13.50;99.90
22779;DHT22;11556;51.194;3.800;2023-03-23T02:48:42;13.40;99.90
22779;DHT22;11556;51.194;3.800;2023-03-23T02:51:10;13.40;99.90
22779;DHT22;11556;51.194;3.800;2023-03-23T02:53:40;13.50;99.90
22779;DHT22;11556;51.194;3.800;2023-03-23T02:56:08;13.50;99.90
22779;DHT22;11556;51.194;3.800;2023-03-23T02:58:35;13.40;99.90
22779;DHT22;11556;51.194;3.800;2023-03-23T03:01:56;13.40;99.90
22779;DHT22;11556;51.194;3.800;2023-03-23T03:04:18;13.60;99.90
22779;DHT22;11556;51.194;3.800;2023-03-23T03:07:18;13.60;99.90
22779;DHT22;11556;51.194;3.800;2023-03-23T03:10:01;13.50;99.90
22779;DHT22;11556;51.194;3.800;2023-03-23T03:12:55;13.50;99.90
22779;DHT22;11556;51.194;3.800;2023-03-23T03:20:47;13.40;99.90
22779;DHT22;11556;51.194;3.800;2023-03-23T03:23:14;13.30;99.90
22779;DHT22;11556;51.194;3.800;2023-03-23T03:25:42;13.30;99.90
22779;DHT22;11556;51.194;3.800;2023-03-23T03:28:19;13.30;99.90
22779;DHT22;11556;51.194;3.800;2023-03-23T03:30:54;13.20;99.90
22779;DHT22;11556;51.194;3.800;2023-03-23T03:33:22;13.30;99.90
22779;DHT22;11556;51.194;3.800;2023-03-23T03:35:54;13.20;99.90
22779;DHT22;11556;51.194;3.800;2023-03-23T03:38:20;13.30;99.90
22779;DHT22;11556;51.194;3.800;2023-03-23T03:40:46;13.20;99.90
22779;DHT22;11556;51.194;3.800;2023-03-23T03:43:12;13.30;99.90
22779;DHT22;11556;51.194;3.800;2023-03-23T03:45:38;13.40;99.90
22779;DHT22;11556;51.194;3.800;2023-03-23T03:48:03;13.30;99.90
22779;DHT22;11556;51.194;3.800;2023-03-23T03:50:29;13.30;99.90
22779;DHT22;11556;51.194;3.800;2023-03-23T03:52:55;13.30;99.90
22779;DHT22;11556;51.194;3.800;2023-03-23T03:55:21;13.30;99.90
22779;DHT22;11556;51.194;3.800;2023-03-23T03:57:47;13.30;99.90
22779;DHT22;11556;51.194;3.800;2023-03-23T04:00:13;13.20;99.90
22779;DHT22;11556;51.194;3.800;2023-03-23T04:02:47;13.20;99.90
22779;DHT22;11556;51.194;3.800;2023-03-23T04:05:16;13.20;99.90
22779;DHT22;11556;51.194;3.800;2023-03-23T04:07:42;13.20;99.90
22779;DHT22;11556;51.194;3.800;2023-03-23T04:10:09;13.10;99.90
22779;DHT22;11556;51.194;3.800;2023-03-23T04:12:35;13.10;99.90
22779;DHT22;11556;51.194;3.800;2023-03-23T04:15:02;13.20;99.90
22779;DHT22;11556;51.194;3.800;2023-03-23T04:17:27;13.10;99.90
22779;DHT22;11556;51.194;3.800;2023-03-23T04:19:54;13.10;99.90
22779;DHT22;11556;51.194;3.800;2023-03-23T04:22:27;13.20;99.90
22779;DHT22;11556;51.194;3.800;2023-03-23T04:24:59;13.20;99.90
22779;DHT22;11556;51.194;3.800;2023-03-23T04:27:26;13.20;99.90
22779;DHT22;11556;51.194;3.800;2023-03-23T04:29:54;13.20;99.90
22779;DHT22;11556;51.194;3.800;2023-03-23T04:32:20;13.20;99.90
22779;DHT22;11556;51.194;3.800;2023-03-23T04:34:46;13.30;99.90
22779;DHT22;11556;51.194;3.800;2023-03-23T04:37:12;13.10;99.90
22779;DHT22;11556;51.194;3.800;2023-03-23T04:39:39;13.00;99.90
22779;DHT22;11556;51.194;3.800;2023-03-23T04:42:05;12.80;99.90
22779;DHT22;11556;51.194;3.800;2023-03-23T04:44:30;12.60;99.90
22779;DHT22;11556;51.194;3.800;2023-03-23T04:47:00;12.60;99.90
22779;DHT22;11556;51.194;3.800;2023-03-23T04:49:26;12.50;99.90
22779;DHT22;11556;51.194;3.800;2023-03-23T04:51:52;12.50;99.90
22779;DHT22;11556;51.194;3.800;2023-03-23T04:54:17;12.40;99.90
22779;DHT22;11556;51.194;3.800;2023-03-23T04:56:43;12.40;99.90
22779;DHT22;11556;51.194;3.800;2023-03-23T04:59:09;12.40;99.90
22779;DHT22;11556;51.194;3.800;2023-03-23T05:01:34;12.30;99.90
22779;DHT22;11556;51.194;3.800;2023-03-23T05:04:03;12.30;99.90
22779;DHT22;11556;51.194;3.800;2023-03-23T05:06:28;12.30;99.90
22779;DHT22;11556;51.194;3.800;2023-03-23T05:08:54;12.20;99.90
22779;DHT22;11556;51.194;3.800;2023-03-23T05:11:20;12.20;99.90
22779;DHT22;11556;51.194;3.800;2023-03-23T05:13:46;12.20;99.90
22779;DHT22;11556;51.194;3.800;2023-03-23T05:16:12;12.20;99.90
22779;DHT22;11556;51.194;3.800;2023-03-23T05:18:37;12.10;99.90
22779;DHT22;11556;51.194;3.800;2023-03-23T05:21:03;12.10;99.90
22779;DHT22;11556;51.194;3.800;2023-03-23T05:23:29;12.00;99.90
22779;DHT22;11556;51.194;3.800;2023-03-23T05:25:57;12.00;99.90
22779;DHT22;11556;51.194;3.800;2023-03-23T05:28:26;12.10;99.90
22779;DHT22;11556;51.194;3.800;2023-03-23T05:30:52;12.10;99.90
22779;DHT22;11556;51.194;3.800;2023-03-23T05:33:19;12.10;99.90
22779;DHT22;11556;51.194;3.800;2023-03-23T05:35:48;12.10;99.90
22779;DHT22;11556;51.194;3.800;2023-03-23T05:38:15;12.10;99.90
22779;DHT22;11556;51.194;3.800;2023-03-23T05:40:41;12.10;99.90
22779;DHT22;11556;51.194;3.800;2023-03-23T05:43:08;12.10;99.90
22779;DHT22;11556;51.194;3.800;2023-03-23T05:45:34;12.10;99.90
22779;DHT22;11556;51.194;3.800;2023-03-23T05:48:00;11.90;99.90
22779;DHT22;11556;51.194;3.800;2023-03-23T05:50:26;11.80;99.90
22779;DHT22;11556;51.194;3.800;2023-03-23T05:52:54;11.80;99.90
22779;DHT22;11556;51.194;3.800;2023-03-23T05:55:20;11.80;99.90
22779;DHT22;11556;51.194;3.800;2023-03-23T05:57:46;11.70;99.90
22779;DHT22;11556;51.194;3.800;2023-03-23T06:00:12;11.60;99.90
22779;DHT22;11556;51.194;3.800;2023-03-23T06:02:48;11.60;99.90
22779;DHT22;11556;51.194;3.800;2023-03-23T06:05:14;11.60;99.90
22779;DHT22;11556;51.194;3.800;2023-03-23T06:07:41;11.60;99.90
22779;DHT22;11556;51.194;3.800;2023-03-23T06:10:08;11.50;99.90
22779;DHT22;11556;51.194;3.800;2023-03-23T06:12:35;11.50;99.90
22779;DHT22;11556;51.194;3.800;2023-03-23T06:15:01;11.50;99.90
22779;DHT22;11556;51.194;3.800;2023-03-23T06:17:26;11.40;99.90
22779;DHT22;11556;51.194;3.800;2023-03-23T06:19:53;11.40;99.90
22779;DHT22;11556;51.194;3.800;2023-03-23T06:22:18;11.30;99.90
22779;DHT22;11556;51.194;3.800;2023-03-23T06:24:44;11.40;99.90
22779;DHT22;11556;51.194;3.800;2023-03-23T06:27:10;11.30;99.90
22779;DHT22;11556;51.194;3.800;2023-03-23T06:29:36;11.30;99.90
22779;DHT22;11556;51.194;3.800;2023-03-23T06:32:03;11.30;99.90
22779;DHT22;11556;51.194;3.800;2023-03-23T06:34:30;11.20;99.90
22779;DHT22;11556;51.194;3.800;2023-03-23T06:36:56;11.20;99.90
22779;DHT22;11556;51.194;3.800;2023-03-23T06:39:22;11.20;99.90
22779;DHT22;11556;51.194;3.800;2023-03-23T06:41:48;11.20;99.90
22779;DHT22;11556;51.194;3.800;2023-03-23T06:44:13;11.20;99.90
22779;DHT22;11556;51.194;3.800;2023-03-23T06:46:40;11.10;99.90
22779;DHT22;11556;51.194;3.800;2023-03-23T06:49:06;11.10;99.90
22779;DHT22;11556;51.194;3.800;2023-03-23T06:51:32;11.10;99.90
22779;DHT22;11556;51.194;3.800;2023-03-23T06:53:57;11.10;99.90
22779;DHT22;11556;51.194;3.800;2023-03-23T06:56:24;11.10;99.90
22779;DHT22;11556;51.194;3.800;2023-03-23T06:58:50;11.20;99.90
22779;DHT22;11556;51.194;3.800;2023-03-23T07:01:16;11.10;99.90
22779;DHT22;11556;51.194;3.800;2023-03-23T07:03:42;11.20;99.90
22779;DHT22;11556;51.194;3.800;2023-03-23T07:06:08;11.20;99.90
22779;DHT22;11556;51.194;3.800;2023-03-23T07:08:34;11.10;99.90
22779;DHT22;11556;51.194;3.800;2023-03-23T07:11:00;11.20;99.90
22779;DHT22;11556;51.194;3.800;2023-03-23T07:13:25;11.10;99.90
22779;DHT22;11556;51.194;3.800;2023-03-23T07:15:52;11.10;99.90
22779;DHT22;11556;51.194;3.800;2023-03-23T07:18:18;11.20;99.90
22779;DHT22;11556;51.194;3.800;2023-03-23T07:20:50;11.20;99.90
22779;DHT22;11556;51.194;3.800;2023-03-23T07:23:16;11.40;99.90
22779;DHT22;11556;51.194;3.800;2023-03-23T07:25:43;11.40;99.90
22779;DHT22;11556;51.194;3.800;2023-03-23T07:28:08;11.60;99.90
22779;DHT22;11556;51.194;3.800;2023-03-23T07:30:34;11.70;99.90
22779;DHT22;11556;51.194;3.800;2023-03-23T07:33:04;11.80;99.90
22779;DHT22;11556;51.194;3.800;2023-03-23T07:35:31;11.90;99.90
22779;DHT22;11556;51.194;3.800;2023-03-23T07:37:56;12.10;99.90
22779;DHT22;11556;51.194;3.800;2023-03-23T07:40:22;12.20;99.90
22779;DHT22;11556;51.194;3.800;2023-03-23T07:42:53;12.20;99.90
22779;DHT22;11556;51.194;3.800;2023-03-23T07:45:19;12.30;99.90
22779;DHT22;11556;51.194;3.800;2023-03-23T07:47:45;12.40;99.90
22779;DHT22;11556;51.194;3.800;2023-03-23T07:50:11;12.40;99.90
22779;DHT22;11556;51.194;3.800;2023-03-23T07:52:38;12.40;99.90
22779;DHT22;11556;51.194;3.800;2023-03-23T07:55:05;12.50;99.90
22779;DHT22;11556;51.194;3.800;2023-03-23T07:57:31;12.50;99.90
22779;DHT22;11556;51.194;3.800;2023-03-23T07:59:57;12.40;99.90
22779;DHT22;11556;51.194;3.800;2023-03-23T08:02:24;12.80;99.90
22779;DHT22;11556;51.194;3.800;2023-03-23T08:04:50;13.70;99.90
22779;DHT22;11556;51.194;3.800;2023-03-23T08:07:17;14.80;99.90
22779;DHT22;11556;51.194;3.800;2023-03-23T08:09:44;15.80;99.90
22779;DHT22;11556;51.194;3.800;2023-03-23T08:12:10;16.70;99.90
22779;DHT22;11556;51.194;3.800;2023-03-23T08:14:36;17.20;99.90
22779;DHT22;11556;51.194;3.800;2023-03-23T08:17:02;17.90;99.90
22779;DHT22;11556;51.194;3.800;2023-03-23T08:19:27;18.20;99.90
22779;DHT22;11556;51.194;3.800;2023-03-23T08:21:53;18.00;99.90
22779;DHT22;11556;51.194;3.800;2023-03-23T08:24:19;18.30;99.90
22779;DHT22;11556;51.194;3.800;2023-03-23T08:26:44;18.90;99.90
22779;DHT22;11556;51.194;3.800;2023-03-23T08:29:10;19.40;99.90
22779;DHT22;11556;51.194;3.800;2023-03-23T08:31:38;19.30;99.90
22779;DHT22;11556;51.194;3.800;2023-03-23T08:34:05;18.80;99.90
22779;DHT22;11556;51.194;3.800;2023-03-23T08:36:34;18.60;99.90
22779;DHT22;11556;51.194;3.800;2023-03-23T08:39:00;18.20;99.90
22779;DHT22;11556;51.194;3.800;2023-03-23T08:41:26;18.30;99.90
22779;DHT22;11556;51.194;3.800;2023-03-23T08:43:52;18.40;99.90
22779;DHT22;11556;51.194;3.800;2023-03-23T08:46:20;18.80;99.90
22779;DHT22;11556;51.194;3.800;2023-03-23T08:48:46;18.70;99.90
22779;DHT22;11556;51.194;3.800;2023-03-23T08:51:12;18.90;99.90
22779;DHT22;11556;51.194;3.800;2023-03-23T08:53:38;18.90;99.90
22779;DHT22;11556;51.194;3.800;2023-03-23T08:56:08;18.40;99.90
22779;DHT22;11556;51.194;3.800;2023-03-23T08:58:38;17.90;99.90
22779;DHT22;11556;51.194;3.800;2023-03-23T09:01:06;18.10;99.90
22779;DHT22;11556;51.194;3.800;2023-03-23T09:03:33;18.00;99.90
22779;DHT22;11556;51.194;3.800;2023-03-23T09:06:03;17.60;99.90
22779;DHT22;11556;51.194;3.800;2023-03-23T09:08:30;17.40;99.90
22779;DHT22;11556;51.194;3.800;2023-03-23T09:11:01;17.40;99.90
22779;DHT22;11556;51.194;3.800;2023-03-23T09:13:28;17.30;99.90
22779;DHT22;11556;51.194;3.800;2023-03-23T09:15:54;17.30;99.90
22779;DHT22;11556;51.194;3.800;2023-03-23T09:18:19;17.50;99.90
22779;DHT22;11556;51.194;3.800;2023-03-23T09:20:45;17.70;99.90
22779;DHT22;11556;51.194;3.800;2023-03-23T09:23:12;17.80;99.90
22779;DHT22;11556;51.194;3.800;2023-03-23T09:25:38;17.90;99.90
22779;DHT22;11556;51.194;3.800;2023-03-23T09:28:05;18.10;99.90
22779;DHT22;11556;51.194;3.800;2023-03-23T09:30:32;18.40;99.90
22779;DHT22;11556;51.194;3.800;2023-03-23T09:33:00;18.50;99.90
22779;DHT22;11556;51.194;3.800;2023-03-23T09:35:30;18.30;99.90
22779;DHT22;11556;51.194;3.800;2023-03-23T09:37:57;17.80;99.90
22779;DHT22;11556;51.194;3.800;2023-03-23T09:40:40;17.80;99.90
22779;DHT22;11556;51.194;3.800;2023-03-23T09:48:33;19.20;99.90
22779;DHT22;11556;51.194;3.800;2023-03-23T09:51:17;19.40;99.90
22779;DHT22;11556;51.194;3.800;2023-03-23T09:53:50;19.40;99.90
22779;DHT22;11556;51.194;3.800;2023-03-23T09:56:16;19.40;99.90
22779;DHT22;11556;51.194;3.800;2023-03-23T10:01:59;18.60;99.90
22779;DHT22;11556;51.194;3.800;2023-03-23T10:04:48;18.10;99.90
22779;DHT22;11556;51.194;3.800;2023-03-23T10:07:25;17.60;99.90
22779;DHT22;11556;51.194;3.800;2023-03-23T10:09:55;17.50;99.90
22779;DHT22;11556;51.194;3.800;2023-03-23T10:12:38;17.40;99.90
22779;DHT22;11556;51.194;3.800;2023-03-23T10:15:26;17.40;99.90
22779;DHT22;11556;51.194;3.800;2023-03-23T10:18:01;17.60;99.90
22779;DHT22;11556;51.194;3.800;2023-03-23T10:26:08;17.10;99.90
22779;DHT22;11556;51.194;3.800;2023-03-23T10:28:44;17.50;99.90
22779;DHT22;11556;51.194;3.800;2023-03-23T10:31:15;17.90;99.90
22779;DHT22;11556;51.194;3.800;2023-03-23T10:33:46;17.70;99.90
22779;DHT22;11556;51.194;3.800;2023-03-23T10:36:19;17.60;99.90
22779;DHT22;11556;51.194;3.800;2023-03-23T10:39:14;17.80;99.90
22779;DHT22;11556;51.194;3.800;2023-03-23T10:41:42;18.20;99.90
22779;DHT22;11556;51.194;3.800;2023-03-23T10:44:15;18.40;99.90
22779;DHT22;11556;51.194;3.800;2023-03-23T10:46:51;18.80;99.90
22779;DHT22;11556;51.194;3.800;2023-03-23T10:49:23;19.30;99.90
22779;DHT22;11556;51.194;3.800;2023-03-23T10:52:03;19.00;99.90
22779;DHT22;11556;51.194;3.800;2023-03-23T10:54:38;18.40;99.90
22779;DHT22;11556;51.194;3.800;2023-03-23T10:57:35;18.90;99.90
22779;DHT22;11556;51.194;3.800;2023-03-23T11:00:23;19.40;99.90
22779;DHT22;11556;51.194;3.800;2023-03-23T11:03:24;19.80;99.90
22779;DHT22;11556;51.194;3.800;2023-03-23T11:05:53;19.90;99.90
22779;DHT22;11556;51.194;3.800;2023-03-23T11:08:24;19.70;99.90
22779;DHT22;11556;51.194;3.800;2023-03-23T11:10:58;19.50;99.90
22779;DHT22;11556;51.194;3.800;2023-03-23T11:13:31;19.30;99.90
22779;DHT22;11556;51.194;3.800;2023-03-23T11:15:58;19.40;99.90
22779;DHT22;11556;51.194;3.800;2023-03-23T11:18:41;20.00;99.90
22779;DHT22;11556;51.194;3.800;2023-03-23T11:21:11;20.30;99.90
22779;DHT22;11556;51.194;3.800;2023-03-23T11:23:40;20.60;99.90
22779;DHT22;11556;51.194;3.800;2023-03-23T11:26:15;20.80;99.90
22779;DHT22;11556;51.194;3.800;2023-03-23T11:31:43;21.40;99.90
22779;DHT22;11556;51.194;3.800;2023-03-23T11:34:30;21.10;99.90
22779;DHT22;11556;51.194;3.800;2023-03-23T11:40:15;20.90;99.90
22779;DHT22;11556;51.194;3.800;2023-03-23T11:50:22;20.00;99.90
22779;DHT22;11556;51.194;3.800;2023-03-23T11:53:31;19.10;99.90
22779;DHT22;11556;51.194;3.800;2023-03-23T11:56:14;17.80;99.90
22779;DHT22;11556;51.194;3.800;2023-03-23T11:58:41;16.60;99.90
22779;DHT22;11556;51.194;3.800;2023-03-23T12:04:25;15.80;99.90
22779;DHT22;11556;51.194;3.800;2023-03-23T12:12:40;15.90;99.90
22779;DHT22;11556;51.194;3.800;2023-03-23T12:15:31;16.40;99.90
22779;DHT22;11556;51.194;3.800;2023-03-23T12:33:54;22.40;99.90
22779;DHT22;11556;51.194;3.800;2023-03-23T12:44:39;21.20;99.90
22779;DHT22;11556;51.194;3.800;2023-03-23T12:47:30;21.00;99.90
22779;DHT22;11556;51.194;3.800;2023-03-23T12:56:04;20.40;99.90
22779;DHT22;11556;51.194;3.800;2023-03-23T12:58:39;20.20;99.90
22779;DHT22;11556;51.194;3.800;2023-03-23T13:01:18;20.50;99.90
22779;DHT22;11556;51.194;3.800;2023-03-23T13:04:02;20.90;99.90
22779;DHT22;11556;51.194;3.800;2023-03-23T13:06:41;21.10;99.90
22779;DHT22;11556;51.194;3.800;2023-03-23T13:09:36;21.20;99.90
22779;DHT22;11556;51.194;3.800;2023-03-23T13:12:05;20.60;99.90
22779;DHT22;11556;51.194;3.800;2023-03-23T13:25:38;19.80;99.90
22779;DHT22;11556;51.194;3.800;2023-03-23T13:28:18;20.30;99.90
22779;DHT22;11556;51.194;3.800;2023-03-23T13:31:13;20.70;99.90
22779;DHT22;11556;51.194;3.800;2023-03-23T13:33:57;20.60;99.90
22779;DHT22;11556;51.194;3.800;2023-03-23T13:36:42;20.40;99.90
22779;DHT22;11556;51.194;3.800;2023-03-23T13:39:53;20.30;99.90
22779;DHT22;11556;51.194;3.800;2023-03-23T13:42:26;19.80;99.90
22779;DHT22;11556;51.194;3.800;2023-03-23T14:11:09;20.90;99.90
22779;DHT22;11556;51.194;3.800;2023-03-23T14:16:24;21.30;99.90
22779;DHT22;11556;51.194;3.800;2023-03-23T14:18:57;21.70;99.90
22779;DHT22;11556;51.194;3.800;2023-03-23T14:21:37;22.30;99.90
22779;DHT22;11556;51.194;3.800;2023-03-23T14:26:35;22.60;97.80
22779;DHT22;11556;51.194;3.800;2023-03-23T14:29:02;22.90;96.40
22779;DHT22;11556;51.194;3.800;2023-03-23T14:31:28;22.70;97.10
22779;DHT22;11556;51.194;3.800;2023-03-23T14:33:55;21.90;97.50
22779;DHT22;11556;51.194;3.800;2023-03-23T14:36:29;21.70;99.40
22779;DHT22;11556;51.194;3.800;2023-03-23T14:39:19;21.50;99.90
22779;DHT22;11556;51.194;3.800;2023-03-23T14:41:46;21.10;99.90
22779;DHT22;11556;51.194;3.800;2023-03-23T14:44:19;20.80;99.90
22779;DHT22;11556;51.194;3.800;2023-03-23T14:46:46;20.70;99.90
22779;DHT22;11556;51.194;3.800;2023-03-23T14:49:15;20.80;99.90
22779;DHT22;11556;51.194;3.800;2023-03-23T14:51:53;21.00;99.90
22779;DHT22;11556;51.194;3.800;2023-03-23T14:54:27;21.40;99.90
22779;DHT22;11556;51.194;3.800;2023-03-23T14:56:54;21.30;99.90
22779;DHT22;11556;51.194;3.800;2023-03-23T14:59:19;21.10;99.90
22779;DHT22;11556;51.194;3.800;2023-03-23T15:01:47;20.90;99.90
22779;DHT22;11556;51.194;3.800;2023-03-23T15:04:20;20.80;99.90
22779;DHT22;11556;51.194;3.800;2023-03-23T15:06:51;21.00;99.90
22779;DHT22;11556;51.194;3.800;2023-03-23T15:09:22;21.30;99.90
22779;DHT22;11556;51.194;3.800;2023-03-23T15:11:56;20.50;99.90
22779;DHT22;11556;51.194;3.800;2023-03-23T15:14:27;19.70;99.90
22779;DHT22;11556;51.194;3.800;2023-03-23T15:16:55;19.40;99.90
22779;DHT22;11556;51.194;3.800;2023-03-23T15:19:27;19.10;99.90
22779;DHT22;11556;51.194;3.800;2023-03-23T15:22:03;18.90;99.90
22779;DHT22;11556;51.194;3.800;2023-03-23T15:24:36;18.90;99.90
22779;DHT22;11556;51.194;3.800;2023-03-23T15:27:24;18.60;99.90
22779;DHT22;11556;51.194;3.800;2023-03-23T15:30:15;18.30;99.90
22779;DHT22;11556;51.194;3.800;2023-03-23T15:32:40;18.00;99.90
22779;DHT22;11556;51.194;3.800;2023-03-23T15:35:15;17.80;99.90
22779;DHT22;11556;51.194;3.800;2023-03-23T15:37:44;17.60;99.90
22779;DHT22;11556;51.194;3.800;2023-03-23T15:40:18;17.60;99.90
22779;DHT22;11556;51.194;3.800;2023-03-23T15:42:44;17.40;99.90
22779;DHT22;11556;51.194;3.800;2023-03-23T15:52:40;17.20;99.90
22779;DHT22;11556;51.194;3.800;2023-03-23T15:55:24;17.10;99.90
22779;DHT22;11556;51.194;3.800;2023-03-23T15:57:51;17.10;99.90
22779;DHT22;11556;51.194;3.800;2023-03-23T16:00:19;17.20;99.90
22779;DHT22;11556;51.194;3.800;2023-03-23T16:02:54;17.30;99.90
22779;DHT22;11556;51.194;3.800;2023-03-23T16:05:20;17.40;99.90
22779;DHT22;11556;51.194;3.800;2023-03-23T16:07:46;17.50;99.90
22779;DHT22;11556;51.194;3.800;2023-03-23T16:10:17;17.40;99.90
22779;DHT22;11556;51.194;3.800;2023-03-23T16:12:44;17.20;99.90
22779;DHT22;11556;51.194;3.800;2023-03-23T16:15:11;16.90;99.90
22779;DHT22;11556;51.194;3.800;2023-03-23T16:17:37;16.50;99.90
22779;DHT22;11556;51.194;3.800;2023-03-23T16:20:15;16.20;99.90
22779;DHT22;11556;51.194;3.800;2023-03-23T16:22:41;16.00;99.90
22779;DHT22;11556;51.194;3.800;2023-03-23T16:25:08;15.60;99.90
22779;DHT22;11556;51.194;3.800;2023-03-23T16:27:34;15.50;99.90
22779;DHT22;11556;51.194;3.800;2023-03-23T16:30:00;15.40;99.90
22779;DHT22;11556;51.194;3.800;2023-03-23T16:32:28;15.30;99.90
22779;DHT22;11556;51.194;3.800;2023-03-23T16:34:53;15.40;99.90
22779;DHT22;11556;51.194;3.800;2023-03-23T16:37:20;15.50;99.90
22779;DHT22;11556;51.194;3.800;2023-03-23T16:39:46;15.60;99.90
22779;DHT22;11556;51.194;3.800;2023-03-23T16:42:11;15.60;99.90
22779;DHT22;11556;51.194;3.800;2023-03-23T16:44:37;15.70;99.90
22779;DHT22;11556;51.194;3.800;2023-03-23T16:47:03;15.80;99.90
22779;DHT22;11556;51.194;3.800;2023-03-23T16:49:28;15.80;99.90
22779;DHT22;11556;51.194;3.800;2023-03-23T16:51:54;15.90;99.90
22779;DHT22;11556;51.194;3.800;2023-03-23T16:54:20;16.10;99.90
22779;DHT22;11556;51.194;3.800;2023-03-23T16:56:46;16.10;99.90
22779;DHT22;11556;51.194;3.800;2023-03-23T16:59:13;16.10;99.90
22779;DHT22;11556;51.194;3.800;2023-03-23T17:01:39;16.20;99.90
22779;DHT22;11556;51.194;3.800;2023-03-23T17:04:06;16.20;99.90
22779;DHT22;11556;51.194;3.800;2023-03-23T17:06:32;16.30;99.90
22779;DHT22;11556;51.194;3.800;2023-03-23T17:08:57;16.30;99.90
22779;DHT22;11556;51.194;3.800;2023-03-23T17:11:23;16.30;99.90
22779;DHT22;11556;51.194;3.800;2023-03-23T17:13:48;16.20;99.90
22779;DHT22;11556;51.194;3.800;2023-03-23T17:16:14;16.20;99.90
22779;DHT22;11556;51.194;3.800;2023-03-23T17:18:40;16.20;99.90
22779;DHT22;11556;51.194;3.800;2023-03-23T17:21:06;16.30;99.90
22779;DHT22;11556;51.194;3.800;2023-03-23T17:23:32;16.20;99.90
22779;DHT22;11556;51.194;3.800;2023-03-23T17:25:58;16.30;99.90
22779;DHT22;11556;51.194;3.800;2023-03-23T17:28:23;16.20;99.90
22779;DHT22;11556;51.194;3.800;2023-03-23T17:30:50;16.20;99.90
22779;DHT22;11556;51.194;3.800;2023-03-23T17:33:16;16.20;99.90
22779;DHT22;11556;51.194;3.800;2023-03-23T17:35:44;16.20;99.90
22779;DHT22;11556;51.194;3.800;2023-03-23T17:38:10;16.10;99.90
22779;DHT22;11556;51.194;3.800;2023-03-23T17:40:36;16.00;99.90
22779;DHT22;11556;51.194;3.800;2023-03-23T17:43:02;16.00;99.90
22779;DHT22;11556;51.194;3.800;2023-03-23T17:45:27;16.00;99.90
22779;DHT22;11556;51.194;3.800;2023-03-23T17:47:53;16.00;99.90
22779;DHT22;11556;51.194;3.800;2023-03-23T17:50:19;15.90;99.90
22779;DHT22;11556;51.194;3.800;2023-03-23T17:52:44;15.90;99.90
22779;DHT22;11556;51.194;3.800;2023-03-23T17:55:10;15.80;99.90
22779;DHT22;11556;51.194;3.800;2023-03-23T17:57:36;15.80;99.90
22779;DHT22;11556;51.194;3.800;2023-03-23T18:00:04;15.90;99.90
22779;DHT22;11556;51.194;3.800;2023-03-23T18:02:32;15.90;99.90
22779;DHT22;11556;51.194;3.800;2023-03-23T18:04:57;15.90;99.90
22779;DHT22;11556;51.194;3.800;2023-03-23T18:07:24;15.70;99.90